sensor_id;sensor_type;location;lat;lon;timestamp;temperature;humidity
59961;DHT22;55902;-37.980;-63.602;2022-08-04T00:01:52;9.90;96.50
59961;DHT22;55902;-37.980;-63.602;2022-08-04T00:04:37;9.80;97.10
59961;DHT22;55902;-37.980;-63.602;2022-08-04T00:10:05;9.60;97.20
59961;DHT22;55902;-37.980;-63.602;2022-08-04T00:12:35;9.50;97.60
59961;DHT22;55902;-37.980;-63.602;2022-08-04T00:15:04;9.40;97.70
59961;DHT22;55902;-37.980;-63.602;2022-08-04T00:17:40;9.40;97.50
59961;DHT22;55902;-37.980;-63.602;2022-08-04T00:20:09;9.30;98.00
59961;DHT22;55902;-37.980;-63.602;2022-08-04T00:22:39;9.30;97.90
59961;DHT22;55902;-37.980;-63.602;2022-08-04T00:25:08;9.30;98.00
59961;DHT22;55902;-37.980;-63.602;2022-08-04T00:27:35;9.20;97.80
59961;DHT22;55902;-37.980;-63.602;2022-08-04T00:30:04;9.20;98.10
59961;DHT22;55902;-37.980;-63.602;2022-08-04T00:32:32;9.20;98.10
59961;DHT22;55902;-37.980;-63.602;2022-08-04T00:35:00;9.20;98.20
59961;DHT22;55902;-37.980;-63.602;2022-08-04T00:37:27;9.20;98.30
59961;DHT22;55902;-37.980;-63.602;2022-08-04T00:39:55;9.20;98.50
59961;DHT22;55902;-37.980;-63.602;2022-08-04T00:48:41;9.10;98.70
59961;DHT22;55902;-37.980;-63.602;2022-08-04T01:00:09;9.10;98.90
59961;DHT22;55902;-37.980;-63.602;2022-08-04T01:08:34;9.10;99.50
59961;DHT22;55902;-37.980;-63.602;2022-08-04T01:11:30;9.10;99.50
59961;DHT22;55902;-37.980;-63.602;2022-08-04T01:17:20;9.10;99.90
59961;DHT22;55902;-37.980;-63.602;2022-08-04T01:20:07;9.10;99.90
59961;DHT22;55902;-37.980;-63.602;2022-08-04T01:23:03;9.10;99.90
59961;DHT22;55902;-37.980;-63.602;2022-08-04T01:25:52;9.00;99.90
59961;DHT22;55902;-37.980;-63.602;2022-08-04T01:28:42;8.90;99.90
59961;DHT22;55902;-37.980;-63.602;2022-08-04T01:34:06;8.70;99.90
59961;DHT22;55902;-37.980;-63.602;2022-08-04T01:36:35;8.70;99.90
59961;DHT22;55902;-37.980;-63.602;2022-08-04T01:39:07;8.70;99.90
59961;DHT22;55902;-37.980;-63.602;2022-08-04T01:41:54;8.50;99.90
59961;DHT22;55902;-37.980;-63.602;2022-08-04T01:44:23;8.40;99.90
59961;DHT22;55902;-37.980;-63.602;2022-08-04T01:46:53;8.30;99.90
59961;DHT22;55902;-37.980;-63.602;2022-08-04T01:49:21;8.20;99.90
59961;DHT22;55902;-37.980;-63.602;2022-08-04T01:51:51;8.20;99.90
59961;DHT22;55902;-37.980;-63.602;2022-08-04T01:54:19;8.30;99.90
59961;DHT22;55902;-37.980;-63.602;2022-08-04T01:56:50;8.20;99.90
59961;DHT22;55902;-37.980;-63.602;2022-08-04T01:59:18;8.20;99.90
59961;DHT22;55902;-37.980;-63.602;2022-08-04T02:01:46;8.30;99.90
59961;DHT22;55902;-37.980;-63.602;2022-08-04T02:04:16;8.30;99.90
59961;DHT22;55902;-37.980;-63.602;2022-08-04T02:12:22;8.10;99.90
59961;DHT22;55902;-37.980;-63.602;2022-08-04T02:15:18;8.10;99.90
59961;DHT22;55902;-37.980;-63.602;2022-08-04T02:18:01;8.10;99.90
59961;DHT22;55902;-37.980;-63.602;2022-08-04T02:20:34;8.00;99.90
59961;DHT22;55902;-37.980;-63.602;2022-08-04T02:23:13;7.90;99.90
59961;DHT22;55902;-37.980;-63.602;2022-08-04T02:25:46;7.90;99.90
59961;DHT22;55902;-37.980;-63.602;2022-08-04T02:28:32;7.90;99.90
59961;DHT22;55902;-37.980;-63.602;2022-08-04T02:34:23;7.80;99.90
59961;DHT22;55902;-37.980;-63.602;2022-08-04T02:36:51;7.70;99.90
59961;DHT22;55902;-37.980;-63.602;2022-08-04T02:39:21;7.70;99.90
59961;DHT22;55902;-37.980;-63.602;2022-08-04T02:41:49;7.60;99.90
59961;DHT22;55902;-37.980;-63.602;2022-08-04T02:54:30;7.60;99.90
59961;DHT22;55902;-37.980;-63.602;2022-08-04T02:57:00;7.50;99.90
59961;DHT22;55902;-37.980;-63.602;2022-08-04T02:59:29;7.50;99.90
59961;DHT22;55902;-37.980;-63.602;2022-08-04T03:01:57;7.50;99.90
59961;DHT22;55902;-37.980;-63.602;2022-08-04T03:38:50;7.30;99.90
59961;DHT22;55902;-37.980;-63.602;2022-08-04T03:41:33;7.30;99.90
59961;DHT22;55902;-37.980;-63.602;2022-08-04T03:44:26;7.20;99.90
59961;DHT22;55902;-37.980;-63.602;2022-08-04T03:50:03;7.10;99.90
59961;DHT22;55902;-37.980;-63.602;2022-08-04T04:14:08;6.20;99.90
59961;DHT22;55902;-37.980;-63.602;2022-08-04T04:16:37;6.10;99.90
59961;DHT22;55902;-37.980;-63.602;2022-08-04T04:21:57;5.90;99.90
59961;DHT22;55902;-37.980;-63.602;2022-08-04T04:25:02;5.80;99.90
59961;DHT22;55902;-37.980;-63.602;2022-08-04T04:27:42;5.70;99.90
59961;DHT22;55902;-37.980;-63.602;2022-08-04T04:30:44;5.70;99.90
59961;DHT22;55902;-37.980;-63.602;2022-08-04T04:36:32;5.60;99.90
59961;DHT22;55902;-37.980;-63.602;2022-08-04T04:44:54;5.50;99.90
59961;DHT22;55902;-37.980;-63.602;2022-08-04T04:50:46;5.40;99.90
59961;DHT22;55902;-37.980;-63.602;2022-08-04T04:56:07;5.40;99.90
59961;DHT22;55902;-37.980;-63.602;2022-08-04T04:58:37;5.40;99.90
59961;DHT22;55902;-37.980;-63.602;2022-08-04T05:01:29;5.30;99.90
59961;DHT22;55902;-37.980;-63.602;2022-08-04T05:15:14;5.40;99.90
59961;DHT22;55902;-37.980;-63.602;2022-08-04T05:17:48;5.50;99.90
59961;DHT22;55902;-37.980;-63.602;2022-08-04T05:20:25;5.50;99.90
59961;DHT22;55902;-37.980;-63.602;2022-08-04T05:23:12;5.50;99.90
59961;DHT22;55902;-37.980;-63.602;2022-08-04T05:26:06;5.50;99.90
59961;DHT22;55902;-37.980;-63.602;2022-08-04T05:28:42;5.50;99.90
59961;DHT22;55902;-37.980;-63.602;2022-08-04T05:31:19;5.60;99.90
59961;DHT22;55902;-37.980;-63.602;2022-08-04T05:33:54;5.60;99.90
59961;DHT22;55902;-37.980;-63.602;2022-08-04T05:36:37;5.60;99.90
59961;DHT22;55902;-37.980;-63.602;2022-08-04T05:39:09;5.60;99.90
59961;DHT22;55902;-37.980;-63.602;2022-08-04T05:41:39;5.60;99.90
59961;DHT22;55902;-37.980;-63.602;2022-08-04T05:44:07;5.50;99.90
59961;DHT22;55902;-37.980;-63.602;2022-08-04T05:46:35;5.50;99.90
59961;DHT22;55902;-37.980;-63.602;2022-08-04T05:49:03;5.40;99.90
59961;DHT22;55902;-37.980;-63.602;2022-08-04T05:51:31;5.30;99.90
59961;DHT22;55902;-37.980;-63.602;2022-08-04T05:54:00;5.30;99.90
59961;DHT22;55902;-37.980;-63.602;2022-08-04T05:56:28;5.20;99.90
59961;DHT22;55902;-37.980;-63.602;2022-08-04T05:58:59;5.20;99.90
59961;DHT22;55902;-37.980;-63.602;2022-08-04T06:01:28;5.10;99.90
59961;DHT22;55902;-37.980;-63.602;2022-08-04T06:03:56;5.10;99.90
59961;DHT22;55902;-37.980;-63.602;2022-08-04T06:06:24;5.10;99.90
59961;DHT22;55902;-37.980;-63.602;2022-08-04T06:08:53;5.00;99.90
59961;DHT22;55902;-37.980;-63.602;2022-08-04T06:11:21;5.00;99.90
59961;DHT22;55902;-37.980;-63.602;2022-08-04T06:13:53;5.00;99.90
59961;DHT22;55902;-37.980;-63.602;2022-08-04T06:16:24;5.00;99.90
59961;DHT22;55902;-37.980;-63.602;2022-08-04T06:18:52;5.00;99.90
59961;DHT22;55902;-37.980;-63.602;2022-08-04T06:21:25;4.90;99.90
59961;DHT22;55902;-37.980;-63.602;2022-08-04T06:23:54;4.90;99.90
59961;DHT22;55902;-37.980;-63.602;2022-08-04T06:26:24;4.90;99.90
59961;DHT22;55902;-37.980;-63.602;2022-08-04T06:28:52;4.90;99.90
59961;DHT22;55902;-37.980;-63.602;2022-08-04T06:31:20;4.80;99.90
59961;DHT22;55902;-37.980;-63.602;2022-08-04T06:34:20;4.80;99.90
59961;DHT22;55902;-37.980;-63.602;2022-08-04T06:36:47;4.70;99.90
59961;DHT22;55902;-37.980;-63.602;2022-08-04T06:39:15;4.70;99.90
59961;DHT22;55902;-37.980;-63.602;2022-08-04T06:41:42;4.70;99.90
59961;DHT22;55902;-37.980;-63.602;2022-08-04T06:44:10;4.70;99.90
59961;DHT22;55902;-37.980;-63.602;2022-08-04T06:46:40;4.70;99.90
59961;DHT22;55902;-37.980;-63.602;2022-08-04T06:49:07;4.70;99.90
59961;DHT22;55902;-37.980;-63.602;2022-08-04T06:51:36;4.70;99.90
59961;DHT22;55902;-37.980;-63.602;2022-08-04T06:54:04;4.70;99.90
59961;DHT22;55902;-37.980;-63.602;2022-08-04T06:56:33;4.70;99.90
59961;DHT22;55902;-37.980;-63.602;2022-08-04T06:59:01;4.70;99.90
59961;DHT22;55902;-37.980;-63.602;2022-08-04T07:01:29;4.70;99.90
59961;DHT22;55902;-37.980;-63.602;2022-08-04T07:03:57;4.70;99.90
59961;DHT22;55902;-37.980;-63.602;2022-08-04T07:06:24;4.70;99.90
59961;DHT22;55902;-37.980;-63.602;2022-08-04T07:08:52;4.80;99.90
59961;DHT22;55902;-37.980;-63.602;2022-08-04T07:11:19;4.80;99.90
59961;DHT22;55902;-37.980;-63.602;2022-08-04T07:13:47;4.80;99.90
59961;DHT22;55902;-37.980;-63.602;2022-08-04T07:16:20;4.80;99.90
59961;DHT22;55902;-37.980;-63.602;2022-08-04T07:18:47;4.80;99.90
59961;DHT22;55902;-37.980;-63.602;2022-08-04T07:21:34;4.70;99.90
59961;DHT22;55902;-37.980;-63.602;2022-08-04T07:24:02;4.70;99.90
59961;DHT22;55902;-37.980;-63.602;2022-08-04T07:26:29;4.70;99.90
59961;DHT22;55902;-37.980;-63.602;2022-08-04T07:28:56;4.70;99.90
59961;DHT22;55902;-37.980;-63.602;2022-08-04T07:31:25;4.80;99.90
59961;DHT22;55902;-37.980;-63.602;2022-08-04T07:33:52;4.70;99.90
59961;DHT22;55902;-37.980;-63.602;2022-08-04T07:36:23;4.70;99.90
59961;DHT22;55902;-37.980;-63.602;2022-08-04T07:38:49;4.60;99.90
59961;DHT22;55902;-37.980;-63.602;2022-08-04T07:41:20;4.70;99.90
59961;DHT22;55902;-37.980;-63.602;2022-08-04T07:43:48;4.60;99.90
59961;DHT22;55902;-37.980;-63.602;2022-08-04T07:46:15;4.60;99.90
59961;DHT22;55902;-37.980;-63.602;2022-08-04T07:48:42;4.60;99.90
59961;DHT22;55902;-37.980;-63.602;2022-08-04T07:51:10;4.60;99.90
59961;DHT22;55902;-37.980;-63.602;2022-08-04T07:53:38;4.60;99.90
59961;DHT22;55902;-37.980;-63.602;2022-08-04T07:56:05;4.60;99.90
59961;DHT22;55902;-37.980;-63.602;2022-08-04T08:08:45;4.60;99.90
59961;DHT22;55902;-37.980;-63.602;2022-08-04T08:11:12;4.60;99.90
59961;DHT22;55902;-37.980;-63.602;2022-08-04T08:13:39;4.60;99.90
59961;DHT22;55902;-37.980;-63.602;2022-08-04T08:16:07;4.60;99.90
59961;DHT22;55902;-37.980;-63.602;2022-08-04T08:18:34;4.60;99.90
59961;DHT22;55902;-37.980;-63.602;2022-08-04T08:21:01;4.60;99.90
59961;DHT22;55902;-37.980;-63.602;2022-08-04T08:23:30;4.60;99.90
59961;DHT22;55902;-37.980;-63.602;2022-08-04T08:25:58;4.60;99.90
59961;DHT22;55902;-37.980;-63.602;2022-08-04T08:28:26;4.60;99.90
59961;DHT22;55902;-37.980;-63.602;2022-08-04T08:30:53;4.60;99.90
59961;DHT22;55902;-37.980;-63.602;2022-08-04T08:33:20;4.50;99.90
59961;DHT22;55902;-37.980;-63.602;2022-08-04T08:57:28;4.50;99.90
59961;DHT22;55902;-37.980;-63.602;2022-08-04T09:11:29;4.70;99.90
59961;DHT22;55902;-37.980;-63.602;2022-08-04T09:14:19;4.70;99.90
59961;DHT22;55902;-37.980;-63.602;2022-08-04T09:17:10;4.60;99.90
59961;DHT22;55902;-37.980;-63.602;2022-08-04T09:20:02;4.60;99.90
59961;DHT22;55902;-37.980;-63.602;2022-08-04T09:22:51;4.60;99.90
59961;DHT22;55902;-37.980;-63.602;2022-08-04T09:25:21;4.50;99.90
59961;DHT22;55902;-37.980;-63.602;2022-08-04T09:27:54;4.50;99.90
59961;DHT22;55902;-37.980;-63.602;2022-08-04T09:30:28;4.40;99.90
59961;DHT22;55902;-37.980;-63.602;2022-08-04T09:33:25;4.50;99.90
59961;DHT22;55902;-37.980;-63.602;2022-08-04T09:36:02;4.40;99.90
59961;DHT22;55902;-37.980;-63.602;2022-08-04T09:46:56;4.30;99.90
59961;DHT22;55902;-37.980;-63.602;2022-08-04T09:49:37;4.40;99.90
59961;DHT22;55902;-37.980;-63.602;2022-08-04T10:00:08;4.50;99.90
59961;DHT22;55902;-37.980;-63.602;2022-08-04T10:02:43;4.50;99.90
59961;DHT22;55902;-37.980;-63.602;2022-08-04T10:05:19;4.50;99.90
59961;DHT22;55902;-37.980;-63.602;2022-08-04T10:21:41;4.10;99.90
59961;DHT22;55902;-37.980;-63.602;2022-08-04T10:26:51;3.90;99.90
59961;DHT22;55902;-37.980;-63.602;2022-08-04T10:34:35;3.80;99.90
59961;DHT22;55902;-37.980;-63.602;2022-08-04T10:37:22;3.80;99.90
59961;DHT22;55902;-37.980;-63.602;2022-08-04T10:43:41;3.80;99.90
59961;DHT22;55902;-37.980;-63.602;2022-08-04T10:46:18;3.80;99.90
59961;DHT22;55902;-37.980;-63.602;2022-08-04T10:51:52;3.80;99.90
59961;DHT22;55902;-37.980;-63.602;2022-08-04T10:57:55;3.80;99.90
59961;DHT22;55902;-37.980;-63.602;2022-08-04T11:00:27;3.90;99.90
59961;DHT22;55902;-37.980;-63.602;2022-08-04T11:08:15;3.90;99.90
59961;DHT22;55902;-37.980;-63.602;2022-08-04T11:10:48;3.90;99.90
59961;DHT22;55902;-37.980;-63.602;2022-08-04T11:13:16;4.00;99.90
59961;DHT22;55902;-37.980;-63.602;2022-08-04T11:15:50;4.00;99.90
59961;DHT22;55902;-37.980;-63.602;2022-08-04T11:21:00;4.10;99.90
59961;DHT22;55902;-37.980;-63.602;2022-08-04T11:23:32;4.20;99.90
59961;DHT22;55902;-37.980;-63.602;2022-08-04T11:31:25;4.40;99.90
59961;DHT22;55902;-37.980;-63.602;2022-08-04T11:36:51;4.60;99.90
59961;DHT22;55902;-37.980;-63.602;2022-08-04T11:39:36;4.70;99.90
59961;DHT22;55902;-37.980;-63.602;2022-08-04T11:42:06;4.80;99.90
59961;DHT22;55902;-37.980;-63.602;2022-08-04T11:44:53;4.80;99.90
59961;DHT22;55902;-37.980;-63.602;2022-08-04T11:47:26;4.90;99.90
59961;DHT22;55902;-37.980;-63.602;2022-08-04T11:50:07;4.90;99.90
59961;DHT22;55902;-37.980;-63.602;2022-08-04T11:52:37;5.00;99.90
59961;DHT22;55902;-37.980;-63.602;2022-08-04T11:55:08;5.00;99.90
59961;DHT22;55902;-37.980;-63.602;2022-08-04T11:57:37;5.00;99.90
59961;DHT22;55902;-37.980;-63.602;2022-08-04T12:00:11;5.00;99.90
59961;DHT22;55902;-37.980;-63.602;2022-08-04T12:14:46;5.30;99.90
59961;DHT22;55902;-37.980;-63.602;2022-08-04T12:17:24;5.60;99.90
59961;DHT22;55902;-37.980;-63.602;2022-08-04T12:20:00;6.00;99.90
59961;DHT22;55902;-37.980;-63.602;2022-08-04T12:22:36;6.60;99.90
59961;DHT22;55902;-37.980;-63.602;2022-08-04T12:25:13;7.40;99.90
59961;DHT22;55902;-37.980;-63.602;2022-08-04T12:27:51;8.10;99.90
59961;DHT22;55902;-37.980;-63.602;2022-08-04T12:30:19;8.90;99.90
59961;DHT22;55902;-37.980;-63.602;2022-08-04T12:33:01;9.50;99.90
59961;DHT22;55902;-37.980;-63.602;2022-08-04T12:38:14;10.70;99.90
59961;DHT22;55902;-37.980;-63.602;2022-08-04T12:40:52;11.00;99.90
59961;DHT22;55902;-37.980;-63.602;2022-08-04T12:43:28;11.40;99.90
59961;DHT22;55902;-37.980;-63.602;2022-08-04T12:46:09;11.70;99.90
59961;DHT22;55902;-37.980;-63.602;2022-08-04T12:48:37;12.00;99.90
59961;DHT22;55902;-37.980;-63.602;2022-08-04T12:51:07;12.30;99.90
59961;DHT22;55902;-37.980;-63.602;2022-08-04T12:53:41;12.60;99.90
59961;DHT22;55902;-37.980;-63.602;2022-08-04T12:56:10;12.90;99.90
59961;DHT22;55902;-37.980;-63.602;2022-08-04T12:58:41;13.20;99.90
59961;DHT22;55902;-37.980;-63.602;2022-08-04T13:01:17;13.50;99.90
59961;DHT22;55902;-37.980;-63.602;2022-08-04T13:04:18;13.70;99.90
59961;DHT22;55902;-37.980;-63.602;2022-08-04T13:06:56;14.10;99.90
59961;DHT22;55902;-37.980;-63.602;2022-08-04T13:09:27;14.40;99.90
59961;DHT22;55902;-37.980;-63.602;2022-08-04T13:12:03;14.80;99.70
59961;DHT22;55902;-37.980;-63.602;2022-08-04T13:14:34;15.10;99.80
59961;DHT22;55902;-37.980;-63.602;2022-08-04T13:17:03;15.40;99.90
59961;DHT22;55902;-37.980;-63.602;2022-08-04T13:19:31;15.80;99.40
59961;DHT22;55902;-37.980;-63.602;2022-08-04T13:21:59;16.00;97.60
59961;DHT22;55902;-37.980;-63.602;2022-08-04T13:24:27;16.40;99.90
59961;DHT22;55902;-37.980;-63.602;2022-08-04T13:32:05;17.40;97.50
59961;DHT22;55902;-37.980;-63.602;2022-08-04T13:34:33;17.70;98.30
59961;DHT22;55902;-37.980;-63.602;2022-08-04T13:37:04;18.00;98.80
59961;DHT22;55902;-37.980;-63.602;2022-08-04T13:39:33;18.20;98.20
59961;DHT22;55902;-37.980;-63.602;2022-08-04T13:42:04;18.50;98.00
59961;DHT22;55902;-37.980;-63.602;2022-08-04T13:44:36;18.60;94.90
59961;DHT22;55902;-37.980;-63.602;2022-08-04T13:47:18;18.80;95.10
59961;DHT22;55902;-37.980;-63.602;2022-08-04T13:50:23;18.80;94.10
59961;DHT22;55902;-37.980;-63.602;2022-08-04T13:53:00;18.80;92.80
59961;DHT22;55902;-37.980;-63.602;2022-08-04T13:55:36;18.90;94.00
59961;DHT22;55902;-37.980;-63.602;2022-08-04T13:58:09;19.00;93.20
59961;DHT22;55902;-37.980;-63.602;2022-08-04T14:04:03;19.60;94.30
59961;DHT22;55902;-37.980;-63.602;2022-08-04T14:09:18;19.90;87.60
59961;DHT22;55902;-37.980;-63.602;2022-08-04T14:11:50;19.90;89.10
59961;DHT22;55902;-37.980;-63.602;2022-08-04T14:14:18;20.10;89.60
59961;DHT22;55902;-37.980;-63.602;2022-08-04T14:17:00;20.00;82.10
59961;DHT22;55902;-37.980;-63.602;2022-08-04T14:19:30;20.00;89.80
59961;DHT22;55902;-37.980;-63.602;2022-08-04T14:22:29;20.20;88.20
59961;DHT22;55902;-37.980;-63.602;2022-08-04T14:25:13;20.40;86.80
59961;DHT22;55902;-37.980;-63.602;2022-08-04T14:27:55;20.70;82.70
59961;DHT22;55902;-37.980;-63.602;2022-08-04T14:30:35;20.80;84.20
59961;DHT22;55902;-37.980;-63.602;2022-08-04T14:33:12;21.00;86.30
59961;DHT22;55902;-37.980;-63.602;2022-08-04T14:35:40;21.20;84.80
59961;DHT22;55902;-37.980;-63.602;2022-08-04T14:38:08;21.60;86.40
59961;DHT22;55902;-37.980;-63.602;2022-08-04T14:40:38;21.80;79.80
59961;DHT22;55902;-37.980;-63.602;2022-08-04T14:43:07;21.90;80.10
59961;DHT22;55902;-37.980;-63.602;2022-08-04T14:45:35;22.10;81.70
59961;DHT22;55902;-37.980;-63.602;2022-08-04T14:48:13;22.40;83.30
59961;DHT22;55902;-37.980;-63.602;2022-08-04T14:50:43;22.50;74.20
59961;DHT22;55902;-37.980;-63.602;2022-08-04T14:53:14;22.50;77.60
59961;DHT22;55902;-37.980;-63.602;2022-08-04T14:55:49;22.50;71.80
59961;DHT22;55902;-37.980;-63.602;2022-08-04T14:58:31;22.70;74.10
59961;DHT22;55902;-37.980;-63.602;2022-08-04T15:01:00;22.80;71.80
59961;DHT22;55902;-37.980;-63.602;2022-08-04T15:03:29;22.70;69.10
59961;DHT22;55902;-37.980;-63.602;2022-08-04T15:05:59;22.90;75.00
59961;DHT22;55902;-37.980;-63.602;2022-08-04T15:08:26;22.90;64.00
59961;DHT22;55902;-37.980;-63.602;2022-08-04T15:10:54;22.90;69.70
59961;DHT22;55902;-37.980;-63.602;2022-08-04T15:13:24;23.10;73.70
59961;DHT22;55902;-37.980;-63.602;2022-08-04T15:15:52;23.30;65.00
59961;DHT22;55902;-37.980;-63.602;2022-08-04T15:18:19;23.30;67.20
59961;DHT22;55902;-37.980;-63.602;2022-08-04T15:29:25;23.70;63.20
59961;DHT22;55902;-37.980;-63.602;2022-08-04T15:31:54;23.90;64.30
59961;DHT22;55902;-37.980;-63.602;2022-08-04T15:34:21;24.00;60.40
59961;DHT22;55902;-37.980;-63.602;2022-08-04T15:36:52;24.10;65.10
59961;DHT22;55902;-37.980;-63.602;2022-08-04T15:47:40;24.10;59.80
59961;DHT22;55902;-37.980;-63.602;2022-08-04T15:50:11;24.10;56.20
59961;DHT22;55902;-37.980;-63.602;2022-08-04T15:53:01;23.90;61.30
59961;DHT22;55902;-37.980;-63.602;2022-08-04T15:55:39;23.90;56.10
59961;DHT22;55902;-37.980;-63.602;2022-08-04T15:58:15;23.80;57.10
59961;DHT22;55902;-37.980;-63.602;2022-08-04T16:19:08;26.70;56.20
59961;DHT22;55902;-37.980;-63.602;2022-08-04T16:21:49;27.00;54.20
59961;DHT22;55902;-37.980;-63.602;2022-08-04T16:24:20;26.90;53.70
59961;DHT22;55902;-37.980;-63.602;2022-08-04T16:26:49;26.80;56.00
59961;DHT22;55902;-37.980;-63.602;2022-08-04T16:34:40;27.30;57.60
59961;DHT22;55902;-37.980;-63.602;2022-08-04T16:37:09;27.30;53.50
59961;DHT22;55902;-37.980;-63.602;2022-08-04T16:39:37;27.30;54.90
59961;DHT22;55902;-37.980;-63.602;2022-08-04T16:52:10;28.00;51.90
59961;DHT22;55902;-37.980;-63.602;2022-08-04T16:54:37;27.30;49.50
59961;DHT22;55902;-37.980;-63.602;2022-08-04T16:57:08;27.40;53.80
59961;DHT22;55902;-37.980;-63.602;2022-08-04T16:59:35;27.60;50.80
59961;DHT22;55902;-37.980;-63.602;2022-08-04T17:02:03;27.60;45.50
59961;DHT22;55902;-37.980;-63.602;2022-08-04T17:04:35;27.30;48.80
59961;DHT22;55902;-37.980;-63.602;2022-08-04T17:07:04;27.60;49.00
59961;DHT22;55902;-37.980;-63.602;2022-08-04T17:09:31;27.80;47.80
59961;DHT22;55902;-37.980;-63.602;2022-08-04T17:11:58;27.80;47.40
59961;DHT22;55902;-37.980;-63.602;2022-08-04T17:14:28;28.00;48.10
59961;DHT22;55902;-37.980;-63.602;2022-08-04T17:16:58;27.70;45.00
59961;DHT22;55902;-37.980;-63.602;2022-08-04T17:19:25;27.60;45.20
59961;DHT22;55902;-37.980;-63.602;2022-08-04T17:22:00;27.60;44.80
59961;DHT22;55902;-37.980;-63.602;2022-08-04T17:24:29;27.80;47.10
59961;DHT22;55902;-37.980;-63.602;2022-08-04T17:26:57;28.10;48.10
59961;DHT22;55902;-37.980;-63.602;2022-08-04T17:29:26;27.40;45.60
59961;DHT22;55902;-37.980;-63.602;2022-08-04T17:31:56;26.60;42.50
59961;DHT22;55902;-37.980;-63.602;2022-08-04T17:34:23;25.80;47.50
59961;DHT22;55902;-37.980;-63.602;2022-08-04T17:36:51;25.30;49.00
59961;DHT22;55902;-37.980;-63.602;2022-08-04T17:39:22;25.60;48.20
59961;DHT22;55902;-37.980;-63.602;2022-08-04T17:41:56;26.10;47.20
59961;DHT22;55902;-37.980;-63.602;2022-08-04T17:44:34;26.10;46.80
59961;DHT22;55902;-37.980;-63.602;2022-08-04T17:47:17;26.60;47.60
59961;DHT22;55902;-37.980;-63.602;2022-08-04T17:49:43;27.00;46.80
59961;DHT22;55902;-37.980;-63.602;2022-08-04T17:52:19;27.30;47.40
59961;DHT22;55902;-37.980;-63.602;2022-08-04T17:54:46;27.60;43.90
59961;DHT22;55902;-37.980;-63.602;2022-08-04T17:57:24;27.40;44.20
59961;DHT22;55902;-37.980;-63.602;2022-08-04T17:59:56;27.00;44.10
59961;DHT22;55902;-37.980;-63.602;2022-08-04T18:02:27;26.60;44.50
59961;DHT22;55902;-37.980;-63.602;2022-08-04T18:04:56;26.80;44.70
59961;DHT22;55902;-37.980;-63.602;2022-08-04T18:07:34;26.80;44.20
59961;DHT22;55902;-37.980;-63.602;2022-08-04T18:10:02;26.50;45.00
59961;DHT22;55902;-37.980;-63.602;2022-08-04T18:12:36;26.20;43.60
59961;DHT22;55902;-37.980;-63.602;2022-08-04T18:15:04;26.10;44.40
59961;DHT22;55902;-37.980;-63.602;2022-08-04T18:17:42;26.00;45.60
59961;DHT22;55902;-37.980;-63.602;2022-08-04T18:20:13;26.00;45.70
59961;DHT22;55902;-37.980;-63.602;2022-08-04T18:22:41;26.00;44.60
59961;DHT22;55902;-37.980;-63.602;2022-08-04T18:25:10;26.30;45.80
59961;DHT22;55902;-37.980;-63.602;2022-08-04T18:27:54;26.40;42.20
59961;DHT22;55902;-37.980;-63.602;2022-08-04T18:30:23;26.20;42.70
59961;DHT22;55902;-37.980;-63.602;2022-08-04T18:32:51;25.10;44.30
59961;DHT22;55902;-37.980;-63.602;2022-08-04T18:35:20;23.90;45.90
59961;DHT22;55902;-37.980;-63.602;2022-08-04T18:37:49;22.80;45.80
59961;DHT22;55902;-37.980;-63.602;2022-08-04T18:40:19;21.80;49.10
59961;DHT22;55902;-37.980;-63.602;2022-08-04T18:42:46;21.10;48.80
59961;DHT22;55902;-37.980;-63.602;2022-08-04T18:45:16;20.60;50.40
59961;DHT22;55902;-37.980;-63.602;2022-08-04T18:47:43;20.20;50.20
59961;DHT22;55902;-37.980;-63.602;2022-08-04T18:50:10;20.60;51.30
59961;DHT22;55902;-37.980;-63.602;2022-08-04T18:52:37;21.20;50.20
59961;DHT22;55902;-37.980;-63.602;2022-08-04T18:55:04;21.40;50.00
59961;DHT22;55902;-37.980;-63.602;2022-08-04T18:57:31;21.20;49.80
59961;DHT22;55902;-37.980;-63.602;2022-08-04T18:59:58;20.60;49.60
59961;DHT22;55902;-37.980;-63.602;2022-08-04T19:02:25;20.10;52.20
59961;DHT22;55902;-37.980;-63.602;2022-08-04T19:04:52;19.50;51.70
59961;DHT22;55902;-37.980;-63.602;2022-08-04T19:07:20;19.20;53.10
59961;DHT22;55902;-37.980;-63.602;2022-08-04T19:09:47;18.90;54.80
59961;DHT22;55902;-37.980;-63.602;2022-08-04T19:12:14;18.80;55.10
59961;DHT22;55902;-37.980;-63.602;2022-08-04T19:14:46;18.80;55.00
59961;DHT22;55902;-37.980;-63.602;2022-08-04T19:17:14;19.10;55.50
59961;DHT22;55902;-37.980;-63.602;2022-08-04T19:19:41;19.60;55.30
59961;DHT22;55902;-37.980;-63.602;2022-08-04T19:22:07;19.70;54.40
59961;DHT22;55902;-37.980;-63.602;2022-08-04T19:24:34;19.60;54.60
59961;DHT22;55902;-37.980;-63.602;2022-08-04T19:27:02;19.50;55.00
59961;DHT22;55902;-37.980;-63.602;2022-08-04T19:29:31;19.30;54.20
59961;DHT22;55902;-37.980;-63.602;2022-08-04T19:31:57;19.00;53.20
59961;DHT22;55902;-37.980;-63.602;2022-08-04T19:34:24;18.80;50.80
59961;DHT22;55902;-37.980;-63.602;2022-08-04T19:36:51;18.50;50.80
59961;DHT22;55902;-37.980;-63.602;2022-08-04T19:39:18;18.30;51.00
59961;DHT22;55902;-37.980;-63.602;2022-08-04T19:41:45;18.00;51.00
59961;DHT22;55902;-37.980;-63.602;2022-08-04T19:44:13;17.80;51.50
59961;DHT22;55902;-37.980;-63.602;2022-08-04T19:46:40;17.90;50.80
59961;DHT22;55902;-37.980;-63.602;2022-08-04T19:49:12;18.30;50.80
59961;DHT22;55902;-37.980;-63.602;2022-08-04T19:51:39;18.40;51.20
59961;DHT22;55902;-37.980;-63.602;2022-08-04T19:54:06;17.90;50.70
59961;DHT22;55902;-37.980;-63.602;2022-08-04T19:56:33;17.60;51.90
59961;DHT22;55902;-37.980;-63.602;2022-08-04T19:58:59;17.50;52.00
59961;DHT22;55902;-37.980;-63.602;2022-08-04T20:01:26;17.40;53.20
59961;DHT22;55902;-37.980;-63.602;2022-08-04T20:07:15;17.00;52.70
59961;DHT22;55902;-37.980;-63.602;2022-08-04T20:09:42;16.90;53.90
59961;DHT22;55902;-37.980;-63.602;2022-08-04T20:12:09;16.80;54.70
59961;DHT22;55902;-37.980;-63.602;2022-08-04T20:14:35;16.70;55.10
59961;DHT22;55902;-37.980;-63.602;2022-08-04T20:17:04;16.70;55.60
59961;DHT22;55902;-37.980;-63.602;2022-08-04T20:19:33;16.50;56.00
59961;DHT22;55902;-37.980;-63.602;2022-08-04T20:22:00;16.40;56.50
59961;DHT22;55902;-37.980;-63.602;2022-08-04T20:24:27;16.30;57.40
59961;DHT22;55902;-37.980;-63.602;2022-08-04T20:26:54;16.30;57.50
59961;DHT22;55902;-37.980;-63.602;2022-08-04T20:29:23;16.30;57.60
59961;DHT22;55902;-37.980;-63.602;2022-08-04T20:31:50;16.40;57.30
59961;DHT22;55902;-37.980;-63.602;2022-08-04T20:34:17;16.40;57.30
59961;DHT22;55902;-37.980;-63.602;2022-08-04T20:36:49;16.30;57.60
59961;DHT22;55902;-37.980;-63.602;2022-08-04T20:39:16;16.30;57.90
59961;DHT22;55902;-37.980;-63.602;2022-08-04T20:41:43;16.20;57.90
59961;DHT22;55902;-37.980;-63.602;2022-08-04T20:44:10;16.20;57.90
59961;DHT22;55902;-37.980;-63.602;2022-08-04T20:46:37;16.10;58.20
59961;DHT22;55902;-37.980;-63.602;2022-08-04T20:49:04;16.00;58.30
59961;DHT22;55902;-37.980;-63.602;2022-08-04T20:51:31;16.00;58.40